AKO weather

Colorado Plains Regional Airport
Akron, Colorado, United States

Public forecast

Using degrees Fahrenheit for public forecast. Weather courtesy of forecast.io.

Current aviation weather report (METAR) for Colorado Plains Regional Airport

Retrieved 2019/10/22 08:53 UTC (52 minutes ago):

KAKO 220853Z AUTO 32010KT 10SM OVC100 02/M03 A3014 RMK AO2 SLP204 T00221033 50002

Closest aviation forecast (TAF) to Colorado Plains Regional Airport

Closest forecast is Sidney Municipal-Lloyd W Carr Field, 56.6 nm (104.9 km) N. Retrieved 2019/10/22 06:27 UTC (3 hours ago):

TAF KSNY 220521Z 2206/2306 30011KT P6SM FEW100 FM221500 31019G28KT P6SM SKC FM230000 30015KT P6SM BKN100